createdAt,value
2023-01-13T00:01:36.428Z,99870.88
2023-01-13T00:04:04.917Z,99859.34
2023-01-13T00:06:31.445Z,99863.72
2023-01-13T00:08:58.112Z,99855.81
2023-01-13T00:11:26.212Z,99859.44
2023-01-13T00:13:52.995Z,99849.19
2023-01-13T00:16:19.901Z,99844.91
2023-01-13T00:18:47.651Z,99852.69
2023-01-13T00:21:16.941Z,99838.75
2023-01-13T00:23:44.242Z,99841.72
2023-01-13T00:26:16.655Z,99814.41
2023-01-13T00:28:43.118Z,99825.97
2023-01-13T00:31:12.807Z,99832.28
2023-01-13T00:33:39.739Z,99828.19
2023-01-13T00:36:08.024Z,99832.28
2023-01-13T00:38:36.371Z,99811.69
2023-01-13T00:41:05.752Z,99808.38
2023-01-13T00:43:34.075Z,99816.22
2023-01-13T00:46:01.014Z,99818.38
2023-01-13T00:48:29.004Z,99817.97
2023-01-13T00:50:59.751Z,99806.28
2023-01-13T00:53:27.334Z,99810.22
2023-01-13T00:56:38.539Z,99802.63
2023-01-13T00:59:07.810Z,99798.88
2023-01-13T01:01:35.819Z,99806.72
2023-01-13T01:04:02.450Z,99801.34
2023-01-13T01:06:29.326Z,99805.13
2023-01-13T01:08:56.621Z,99803.13
2023-01-13T01:11:26.197Z,99804.41
2023-01-13T01:13:54.978Z,99796.34
2023-01-13T01:16:23.954Z,99804.94
2023-01-13T01:18:52.327Z,99799.50
2023-01-13T01:21:20.476Z,99808.25
2023-01-13T01:23:47.154Z,99809.00
2023-01-13T01:26:20.599Z,99802.06
2023-01-13T01:28:47.248Z,99805.94
2023-01-13T01:31:19.865Z,99790.63
2023-01-13T01:33:47.414Z,99807.75
2023-01-13T01:36:15.928Z,99788.28
2023-01-13T01:38:42.764Z,99811.50
2023-01-13T01:41:15.165Z,99796.91
2023-01-13T01:44:02.887Z,99801.41
2023-01-13T01:46:37.242Z,99797.41
2023-01-13T01:49:20.989Z,99796.38
2023-01-13T01:52:02.107Z,99788.28
2023-01-13T01:54:37.416Z,99778.16
2023-01-13T01:57:04.669Z,99776.34
2023-01-13T01:59:34.982Z,99777.56
2023-01-13T02:02:02.280Z,99768.09
2023-01-13T02:04:36.546Z,99766.69
2023-01-13T02:07:03.836Z,99765.34
2023-01-13T02:09:31.007Z,99754.19
2023-01-13T02:12:16.274Z,99763.19
2023-01-13T02:15:14.032Z,99772.59
2023-01-13T02:18:05.729Z,99760.13
2023-01-13T02:20:56.161Z,99752.09
2023-01-13T02:23:44.295Z,99759.00
2023-01-13T02:26:22.981Z,99757.44
2023-01-13T02:29:17.459Z,99758.56
2023-01-13T02:31:48.238Z,99753.44
2023-01-13T02:34:27.506Z,99758.78
2023-01-13T02:37:07.759Z,99749.66
2023-01-13T02:39:45.845Z,99756.84
2023-01-13T02:42:37.382Z,99747.06
2023-01-13T02:45:13.757Z,99744.81
2023-01-13T02:47:44.925Z,99736.75
2023-01-13T02:50:20.675Z,99739.47
2023-01-13T02:52:52.853Z,99733.75
2023-01-13T02:55:24.545Z,99735.81
2023-01-13T02:57:53.033Z,99732.56
2023-01-13T03:00:20.805Z,99743.97
2023-01-13T03:02:48.651Z,99724.44
2023-01-13T03:05:16.950Z,99726.84
2023-01-13T03:08:15.664Z,99739.06
2023-01-13T03:11:11.855Z,99749.38
2023-01-13T03:14:15.186Z,99733.06
2023-01-13T03:16:48.787Z,99723.97
2023-01-13T03:19:30.758Z,99742.56
2023-01-13T03:22:06.472Z,99738.69
2023-01-13T03:25:02.504Z,99732.88
2023-01-13T03:27:48.229Z,99734.25
2023-01-13T03:30:21.816Z,99733.56
2023-01-13T03:32:52.718Z,99730.53
2023-01-13T03:35:24.732Z,99729.13
2023-01-13T03:38:00.347Z,99738.16
2023-01-13T03:40:31.953Z,99734.56
2023-01-13T03:43:30.551Z,99727.56
2023-01-13T03:46:01.827Z,99733.44
2023-01-13T03:48:32.683Z,99725.63
2023-01-13T03:51:06.641Z,99714.88
2023-01-13T03:53:40.747Z,99720.41
2023-01-13T03:56:15.406Z,99715.84
2023-01-13T03:58:45.808Z,99716.88
2023-01-13T04:01:12.469Z,99708.44
2023-01-13T04:03:46.404Z,99701.97
2023-01-13T04:06:18.684Z,99701.38
2023-01-13T04:08:49.906Z,99705.97
2023-01-13T04:11:29.551Z,99713.63
2023-01-13T04:13:58.191Z,99703.44
2023-01-13T04:16:25.292Z,99709.38
2023-01-13T04:18:52.176Z,99691.28
2023-01-13T04:21:18.992Z,99692.34
2023-01-13T04:23:45.817Z,99685.94
2023-01-13T04:26:12.343Z,99676.03
2023-01-13T04:28:40.642Z,99676.09
2023-01-13T04:31:07.664Z,99675.50
2023-01-13T04:33:34.630Z,99675.91
2023-01-13T04:36:01.298Z,99672.16
2023-01-13T04:38:28.398Z,99671.44
2023-01-13T04:40:55.240Z,99671.44
2023-01-13T04:43:21.893Z,99670.34
2023-01-13T04:45:48.484Z,99665.50
2023-01-13T04:48:15.067Z,99671.41
2023-01-13T04:50:42.531Z,99667.34
2023-01-13T04:53:09.352Z,99659.06
2023-01-13T04:55:35.953Z,99647.31
2023-01-13T04:58:04.711Z,99665.09
2023-01-13T05:00:32.086Z,99658.00
2023-01-13T05:03:01.852Z,99649.56
2023-01-13T05:05:30.175Z,99664.75
2023-01-13T05:07:57.336Z,99661.72
2023-01-13T05:10:24.280Z,99677.28
2023-01-13T05:13:09.535Z,99674.91
2023-01-13T05:15:54.925Z,99680.84
2023-01-13T05:18:21.845Z,99682.41
2023-01-13T05:20:49.920Z,99681.22
2023-01-13T05:23:35.342Z,99685.56
2023-01-13T05:26:02.561Z,99698.94
2023-01-13T05:28:34.934Z,99703.47
2023-01-13T05:31:01.714Z,99720.22
2023-01-13T05:33:28.814Z,99738.91
2023-01-13T05:35:55.551Z,99759.78
2023-01-13T05:38:22.131Z,99765.19
2023-01-13T05:41:07.224Z,99764.13
2023-01-13T05:43:34.994Z,99747.16
2023-01-13T05:46:05.006Z,99758.75
2023-01-13T05:48:34.737Z,99771.16
2023-01-13T05:51:02.272Z,99774.38
2023-01-13T05:53:29.325Z,99783.66
2023-01-13T05:55:56.349Z,99815.41
2023-01-13T05:58:25.175Z,99820.94
2023-01-13T06:00:52.436Z,99810.47
2023-01-13T06:03:20.223Z,99804.91
2023-01-13T06:05:47.926Z,99807.97
2023-01-13T06:08:14.692Z,99800.34
2023-01-13T06:10:41.493Z,99798.94
2023-01-13T06:13:09.065Z,99791.34
2023-01-13T06:15:36.018Z,99795.25
2023-01-13T06:18:04.373Z,99792.69
2023-01-13T06:20:32.933Z,99791.25
2023-01-13T06:23:00.319Z,99785.00
2023-01-13T06:25:49.860Z,99797.13
2023-01-13T06:28:16.446Z,99801.38
2023-01-13T06:30:50.959Z,99811.69
2023-01-13T06:33:25.772Z,99807.47
2023-01-13T06:35:55.979Z,99811.63
2023-01-13T06:38:25.938Z,99822.38
2023-01-13T06:40:53.023Z,99822.03
2023-01-13T06:43:19.682Z,99813.44
2023-01-13T06:45:50.740Z,99816.38
2023-01-13T06:48:20.018Z,99801.53
2023-01-13T06:50:46.703Z,99790.31
2023-01-13T06:53:13.309Z,99797.66
2023-01-13T06:55:39.909Z,99757.09
2023-01-13T06:58:07.619Z,99772.56
2023-01-13T07:00:37.527Z,99786.13
2023-01-13T07:03:15.311Z,99797.22
2023-01-13T07:05:43.854Z,99800.31
2023-01-13T07:08:10.747Z,99788.09
2023-01-13T07:10:38.042Z,99786.00
2023-01-13T07:13:24.872Z,99777.94
2023-01-13T07:15:57.133Z,99790.56
2023-01-13T07:18:24.692Z,99787.28
2023-01-13T07:20:59.979Z,99794.38
2023-01-13T07:23:32.134Z,99795.22
2023-01-13T07:25:59.911Z,99801.88
2023-01-13T07:28:27.865Z,99810.69
2023-01-13T07:30:55.089Z,99805.75
2023-01-13T07:33:22.275Z,99818.88
2023-01-13T07:35:55.119Z,99808.50
2023-01-13T07:38:21.641Z,99811.13
2023-01-13T07:40:48.208Z,99801.28
2023-01-13T07:43:32.891Z,99811.44
2023-01-13T07:46:05.048Z,99827.56
2023-01-13T07:48:34.057Z,99837.06
2023-01-13T07:51:06.652Z,99842.47
2023-01-13T07:53:33.995Z,99840.97
2023-01-13T07:56:01.566Z,99834.91
2023-01-13T07:58:29.008Z,99830.22
2023-01-13T08:00:56.395Z,99836.78
2023-01-13T08:03:23.613Z,99842.47
2023-01-13T08:05:50.454Z,99850.50
2023-01-13T08:08:17.135Z,99854.88
2023-01-13T08:10:45.068Z,99858.66
2023-01-13T08:13:21.285Z,99869.78
2023-01-13T08:15:51.736Z,99872.84
2023-01-13T08:18:22.033Z,99868.72
2023-01-13T08:20:49.528Z,99861.41
2023-01-13T08:23:16.642Z,99869.16
2023-01-13T08:25:43.695Z,99870.13
2023-01-13T08:28:10.869Z,99875.81
2023-01-13T08:30:37.570Z,99870.59
2023-01-13T08:33:07.932Z,99877.16
2023-01-13T08:35:38.306Z,99892.50
2023-01-13T08:38:05.667Z,99897.13
2023-01-13T08:40:33.162Z,99898.94
2023-01-13T08:43:00.410Z,99905.28
2023-01-13T08:45:27.177Z,99907.78
2023-01-13T08:47:53.790Z,99909.94
2023-01-13T08:50:20.727Z,99907.31
2023-01-13T08:52:48.698Z,99912.91
2023-01-13T08:55:24.305Z,99912.78
2023-01-13T08:57:51.081Z,99910.81
2023-01-13T09:00:18.189Z,99922.75
2023-01-13T09:02:45.062Z,99909.66
2023-01-13T09:05:13.529Z,99913.22
2023-01-13T09:07:40.333Z,99920.00
2023-01-13T09:10:08.439Z,99917.94
2023-01-13T09:12:53.972Z,99925.38
2023-01-13T09:15:21.664Z,99931.16
2023-01-13T09:17:48.407Z,99934.91
2023-01-13T09:20:15.205Z,99938.84
2023-01-13T09:22:41.866Z,99941.97
2023-01-13T09:25:08.979Z,99942.13
2023-01-13T09:27:35.931Z,99933.28
2023-01-13T09:30:05.464Z,99945.78
2023-01-13T09:32:35.624Z,99960.03
2023-01-13T09:35:02.407Z,99947.28
2023-01-13T09:37:34.193Z,99951.28
2023-01-13T09:40:02.158Z,99953.47
2023-01-13T09:42:50.443Z,99966.97
2023-01-13T09:45:27.510Z,99967.31
2023-01-13T09:48:15.347Z,99958.06
2023-01-13T09:50:41.877Z,99960.38
2023-01-13T09:53:21.522Z,99953.31
2023-01-13T09:55:48.849Z,99976.28
2023-01-13T09:58:18.087Z,99974.34
2023-01-13T10:01:26.629Z,99970.91
2023-01-13T10:03:53.614Z,99979.44
2023-01-13T10:06:36.345Z,99989.81
2023-01-13T10:09:03.113Z,99987.78
2023-01-13T10:12:02.006Z,99988.72
2023-01-13T10:14:43.250Z,99989.63
2023-01-13T10:17:29.083Z,99974.22
2023-01-13T10:20:11.323Z,99965.31
2023-01-13T10:23:08.946Z,99964.44
2023-01-13T10:26:09.092Z,99966.03
2023-01-13T10:28:39.810Z,99954.22
2023-01-13T10:31:14.768Z,99952.59
2023-01-13T10:33:42.743Z,99947.16
2023-01-13T10:36:12.476Z,99951.97
2023-01-13T10:38:45.253Z,99949.09
2023-01-13T10:41:14.519Z,99960.38
2023-01-13T10:43:51.165Z,99958.41
2023-01-13T10:46:20.074Z,99955.66
2023-01-13T10:48:57.107Z,99950.47
2023-01-13T10:51:38.992Z,99961.75
2023-01-13T10:54:11.669Z,99966.63
2023-01-13T10:56:45.697Z,99956.25
2023-01-13T10:59:17.015Z,99944.28
2023-01-13T11:02:04.029Z,99945.19
2023-01-13T11:04:40.810Z,99957.38
2023-01-13T11:07:29.828Z,99944.50
2023-01-13T11:10:28.134Z,99967.41
2023-01-13T11:13:18.414Z,99957.53
2023-01-13T11:16:10.782Z,99954.59
2023-01-13T11:19:02.752Z,99953.41
2023-01-13T11:21:37.213Z,99955.75
2023-01-13T11:24:14.067Z,99958.03
2023-01-13T11:26:45.979Z,99965.06
2023-01-13T11:29:28.175Z,99967.53
2023-01-13T11:32:05.308Z,99968.88
2023-01-13T11:34:41.392Z,99981.69
2023-01-13T11:37:33.700Z,99970.00
2023-01-13T11:40:05.637Z,99978.34
2023-01-13T11:42:40.086Z,99993.41
2023-01-13T11:45:10.329Z,99981.31
2023-01-13T11:47:37.637Z,99995.03
2023-01-13T11:50:14.975Z,99992.09
2023-01-13T11:52:59.837Z,99988.91
2023-01-13T11:55:42.234Z,100000.41
2023-01-13T11:58:20.753Z,99984.47
2023-01-13T12:01:09.765Z,99987.66
2023-01-13T12:04:01.399Z,99986.75
2023-01-13T12:06:37.197Z,99982.53
2023-01-13T12:09:15.830Z,99995.78
2023-01-13T12:12:19.429Z,99995.09
2023-01-13T12:15:16.286Z,100000.00
2023-01-13T12:18:06.339Z,99994.72
2023-01-13T12:20:43.843Z,99973.81
2023-01-13T12:23:23.905Z,99984.00
2023-01-13T12:25:56.899Z,99981.38
2023-01-13T12:28:30.394Z,99994.94
2023-01-13T12:31:18.918Z,100002.66
2023-01-13T12:34:00.774Z,100015.53
2023-01-13T12:36:57.395Z,100010.31
2023-01-13T12:39:35.081Z,99995.94
2023-01-13T12:42:34.384Z,99978.16
2023-01-13T12:45:10.349Z,99974.22
2023-01-13T12:47:39.249Z,99981.03
2023-01-13T12:50:26.672Z,99983.84
2023-01-13T12:52:59.586Z,99995.97
2023-01-13T12:55:35.901Z,100004.19
2023-01-13T12:58:05.596Z,100001.13
2023-01-13T13:00:45.610Z,99987.28
2023-01-13T13:03:12.329Z,99992.25
2023-01-13T13:05:41.709Z,99993.19
2023-01-13T13:08:41.487Z,99988.56
2023-01-13T13:11:39.891Z,99994.34
2023-01-13T13:14:15.717Z,99985.34
2023-01-13T13:16:50.723Z,99978.94
2023-01-13T13:19:21.419Z,99974.63
2023-01-13T13:22:11.853Z,99982.53
2023-01-13T13:24:43.762Z,99974.88
2023-01-13T13:27:28.626Z,99985.03
2023-01-13T13:30:03.947Z,99988.56
2023-01-13T13:32:33.696Z,99996.94
2023-01-13T13:35:51.848Z,100018.06
2023-01-13T13:38:49.866Z,100020.31
2023-01-13T13:41:39.176Z,100038.16
2023-01-13T13:44:37.386Z,100060.97
2023-01-13T13:47:06.477Z,100073.88
2023-01-13T13:49:50.895Z,100073.44
2023-01-13T13:52:38.102Z,100082.75
2023-01-13T13:55:18.527Z,100078.94
2023-01-13T13:57:51.058Z,100077.94
2023-01-13T14:00:27.730Z,100081.94
2023-01-13T14:02:58.801Z,100088.22
2023-01-13T14:05:35.010Z,100091.06
2023-01-13T14:08:17.972Z,100084.97
2023-01-13T14:10:47.268Z,100089.28
2023-01-13T14:13:14.805Z,100083.31
2023-01-13T14:15:41.872Z,100095.28
2023-01-13T14:18:14.811Z,100088.69
2023-01-13T14:20:42.566Z,100085.09
2023-01-13T14:23:17.784Z,100104.53
2023-01-13T14:25:50.550Z,100095.47
2023-01-13T14:28:49.504Z,100101.66
2023-01-13T14:31:16.604Z,100112.56
2023-01-13T14:33:46.231Z,100118.50
2023-01-13T14:36:24.315Z,100129.38
2023-01-13T14:39:15.864Z,100123.09
2023-01-13T14:41:42.758Z,100116.72
2023-01-13T14:44:20.109Z,100117.88
2023-01-13T14:46:46.894Z,100120.28
2023-01-13T14:49:58.793Z,100127.25
2023-01-13T14:52:27.997Z,100129.41
2023-01-13T14:55:10.274Z,100123.06
2023-01-13T14:57:39.742Z,100128.44
2023-01-13T15:00:15.408Z,100114.28
2023-01-13T15:02:45.214Z,100129.09
2023-01-13T15:05:17.702Z,100140.00
2023-01-13T15:07:53.578Z,100144.84
2023-01-13T15:10:30.939Z,100134.22
2023-01-13T15:12:59.841Z,100152.34
2023-01-13T15:15:50.958Z,100153.22
2023-01-13T15:18:18.182Z,100149.75
2023-01-13T15:20:45.724Z,100159.09
2023-01-13T15:23:12.726Z,100158.19
2023-01-13T15:25:42.157Z,100169.94
2023-01-13T15:28:19.150Z,100166.22
2023-01-13T15:30:46.835Z,100181.97
2023-01-13T15:33:14.642Z,100182.91
2023-01-13T15:35:47.435Z,100194.78
2023-01-13T15:38:17.405Z,100196.47
2023-01-13T15:40:45.262Z,100207.06
2023-01-13T15:43:38.878Z,100204.41
2023-01-13T15:46:18.974Z,100209.44
2023-01-13T15:48:45.596Z,100204.72
2023-01-13T15:51:17.261Z,100214.13
2023-01-13T15:53:44.534Z,100205.69
2023-01-13T15:56:26.625Z,100209.38
2023-01-13T15:58:53.964Z,100215.03
2023-01-13T16:01:24.401Z,100217.81
2023-01-13T16:03:53.227Z,100233.03
2023-01-13T16:06:27.963Z,100223.44
2023-01-13T16:08:54.936Z,100225.19
2023-01-13T16:11:21.479Z,100225.25
2023-01-13T16:13:48.000Z,100238.09
2023-01-13T16:16:21.814Z,100230.22
2023-01-13T16:18:49.308Z,100245.16
2023-01-13T16:21:19.365Z,100244.94
2023-01-13T16:23:50.238Z,100251.97
2023-01-13T16:26:26.066Z,100256.50
2023-01-13T16:28:56.671Z,100256.44
2023-01-13T16:31:32.925Z,100263.00
2023-01-13T16:34:01.713Z,100276.34
2023-01-13T16:36:30.208Z,100278.47
2023-01-13T16:38:57.241Z,100282.16
2023-01-13T16:41:25.109Z,100287.84
2023-01-13T16:43:52.523Z,100293.78
2023-01-13T16:46:21.148Z,100289.44
2023-01-13T16:48:48.719Z,100287.78
2023-01-13T16:51:18.093Z,100294.47
2023-01-13T16:53:44.842Z,100303.69
2023-01-13T16:56:30.103Z,100301.19
2023-01-13T16:58:59.770Z,100307.03
2023-01-13T17:01:29.173Z,100322.75
2023-01-13T17:03:56.290Z,100334.41
2023-01-13T17:06:27.601Z,100336.38
2023-01-13T17:08:54.392Z,100339.13
2023-01-13T17:11:21.813Z,100332.56
2023-01-13T17:13:49.104Z,100342.13
2023-01-13T17:16:18.796Z,100337.34
2023-01-13T17:18:48.158Z,100348.13
2023-01-13T17:21:15.014Z,100349.94
2023-01-13T17:23:41.740Z,100352.00
2023-01-13T17:26:22.994Z,100348.09
2023-01-13T17:28:49.617Z,100357.09
2023-01-13T17:31:16.323Z,100352.91
2023-01-13T17:33:43.082Z,100362.88
2023-01-13T17:36:09.894Z,100366.50
2023-01-13T17:38:36.593Z,100357.91
2023-01-13T17:41:04.344Z,100371.94
2023-01-13T17:43:31.869Z,100364.59
2023-01-13T17:45:58.961Z,100372.28
2023-01-13T17:48:26.360Z,100377.66
2023-01-13T17:50:53.311Z,100381.41
2023-01-13T17:53:20.757Z,100377.16
2023-01-13T17:55:52.225Z,100367.91
2023-01-13T17:58:20.229Z,100381.72
2023-01-13T18:00:47.561Z,100379.88
2023-01-13T18:03:17.587Z,100376.16
2023-01-13T18:05:45.724Z,100379.66
2023-01-13T18:08:12.876Z,100389.88
2023-01-13T18:10:39.564Z,100395.25
2023-01-13T18:13:06.949Z,100392.19
2023-01-13T18:15:33.615Z,100395.84
2023-01-13T18:18:00.240Z,100403.75
2023-01-13T18:20:45.850Z,100419.00
2023-01-13T18:23:38.600Z,100424.06
2023-01-13T18:26:50.060Z,100433.47
2023-01-13T18:29:16.857Z,100434.59
2023-01-13T18:31:43.380Z,100434.50
2023-01-13T18:34:10.072Z,100434.66
2023-01-13T18:36:38.051Z,100427.97
2023-01-13T18:39:04.969Z,100436.50
2023-01-13T18:41:49.992Z,100435.41
2023-01-13T18:44:16.572Z,100449.63
2023-01-13T18:46:43.721Z,100444.56
2023-01-13T18:49:10.374Z,100456.31
2023-01-13T18:51:39.786Z,100450.81
2023-01-13T18:54:07.062Z,100443.91
2023-01-13T18:56:34.375Z,100447.91
2023-01-13T18:59:02.367Z,100457.22
2023-01-13T19:01:30.256Z,100468.13
2023-01-13T19:04:03.450Z,100467.47
2023-01-13T19:06:33.174Z,100474.75
2023-01-13T19:09:01.877Z,100481.28
2023-01-13T19:11:30.912Z,100485.41
2023-01-13T19:13:58.889Z,100482.09
2023-01-13T19:16:25.977Z,100490.97
2023-01-13T19:18:52.620Z,100499.09
2023-01-13T19:21:19.887Z,100499.56
2023-01-13T19:23:46.566Z,100501.75
2023-01-13T19:26:13.479Z,100503.94
2023-01-13T19:28:40.563Z,100515.47
2023-01-13T19:31:10.240Z,100512.00
2023-01-13T19:33:39.804Z,100520.72
2023-01-13T19:36:09.622Z,100522.47
2023-01-13T19:38:38.552Z,100533.38
2023-01-13T19:41:27.402Z,100530.22
2023-01-13T19:44:14.186Z,100540.34
2023-01-13T19:46:45.035Z,100543.84
2023-01-13T19:49:11.702Z,100542.13
2023-01-13T19:51:38.566Z,100550.25
2023-01-13T19:54:05.321Z,100549.69
2023-01-13T19:56:32.949Z,100553.34
2023-01-13T19:58:59.688Z,100548.38
2023-01-13T20:01:31.886Z,100543.72
2023-01-13T20:04:03.260Z,100551.69
2023-01-13T20:06:31.696Z,100545.41
2023-01-13T20:08:58.724Z,100551.94
2023-01-13T20:11:31.376Z,100554.88
2023-01-13T20:13:59.732Z,100554.22
2023-01-13T20:16:27.969Z,100553.69
2023-01-13T20:18:54.609Z,100571.34
2023-01-13T20:21:22.642Z,100565.47
2023-01-13T20:23:52.042Z,100572.88
2023-01-13T20:26:20.397Z,100578.91
2023-01-13T20:28:47.668Z,100581.59
2023-01-13T20:31:15.666Z,100575.66
2023-01-13T20:33:42.904Z,100579.81
2023-01-13T20:36:23.548Z,100587.19
2023-01-13T20:38:51.382Z,100583.34
2023-01-13T20:41:38.729Z,100587.22
2023-01-13T20:44:07.281Z,100597.88
2023-01-13T20:46:33.908Z,100594.59
2023-01-13T20:49:00.691Z,100604.94
2023-01-13T20:51:27.305Z,100594.38
2023-01-13T20:53:56.881Z,100589.69
2023-01-13T20:56:23.547Z,100592.25
2023-01-13T20:58:50.307Z,100598.78
2023-01-13T21:01:17.218Z,100604.06
2023-01-13T21:03:43.932Z,100605.31
2023-01-13T21:06:11.313Z,100610.31
2023-01-13T21:08:38.233Z,100611.53
2023-01-13T21:11:06.142Z,100612.63
2023-01-13T21:13:51.235Z,100611.06
2023-01-13T21:16:19.174Z,100620.22
2023-01-13T21:19:04.058Z,100616.78
2023-01-13T21:21:31.148Z,100615.41
2023-01-13T21:23:57.793Z,100628.47
2023-01-13T21:26:27.420Z,100624.06
2023-01-13T21:28:59.200Z,100638.59
2023-01-13T21:31:27.051Z,100635.34
2023-01-13T21:33:57.637Z,100638.00
2023-01-13T21:36:24.783Z,100633.03
2023-01-13T21:38:56.555Z,100642.59
2023-01-13T21:41:51.884Z,100634.91
2023-01-13T21:44:39.446Z,100647.91
2023-01-13T21:47:34.089Z,100652.53
2023-01-13T21:50:01.298Z,100648.44
2023-01-13T21:52:28.577Z,100658.19
2023-01-13T21:55:13.865Z,100664.06
2023-01-13T21:57:44.246Z,100670.97
2023-01-13T22:00:11.614Z,100675.09
2023-01-13T22:02:38.365Z,100682.69
2023-01-13T22:05:07.208Z,100677.28
2023-01-13T22:07:36.906Z,100679.66
2023-01-13T22:10:05.152Z,100682.00
2023-01-13T22:12:32.452Z,100692.03
2023-01-13T22:14:59.212Z,100694.44
2023-01-13T22:17:28.192Z,100691.41
2023-01-13T22:19:58.141Z,100694.78
2023-01-13T22:22:27.251Z,100690.88
2023-01-13T22:24:53.987Z,100699.19
2023-01-13T22:27:23.102Z,100697.41
2023-01-13T22:29:54.563Z,100703.19
2023-01-13T22:32:21.331Z,100697.13
2023-01-13T22:34:50.661Z,100710.53
2023-01-13T22:37:17.182Z,100701.38
2023-01-13T22:39:43.800Z,100708.50
2023-01-13T22:42:11.564Z,100715.59
2023-01-13T22:44:38.551Z,100723.81
2023-01-13T22:47:05.329Z,100719.19
2023-01-13T22:49:34.132Z,100726.16
2023-01-13T22:52:00.835Z,100717.91
2023-01-13T22:54:27.419Z,100723.19
2023-01-13T22:56:53.971Z,100726.91
2023-01-13T22:59:21.888Z,100728.38
2023-01-13T23:01:48.459Z,100735.91
2023-01-13T23:04:15.189Z,100734.38
2023-01-13T23:06:41.978Z,100733.66
2023-01-13T23:09:09.979Z,100743.78
2023-01-13T23:11:36.634Z,100744.91
2023-01-13T23:14:06.136Z,100751.16
2023-01-13T23:16:35.922Z,100745.84
2023-01-13T23:19:03.633Z,100737.66
2023-01-13T23:21:33.278Z,100740.94
2023-01-13T23:24:00.283Z,100729.88
2023-01-13T23:26:28.306Z,100742.50
2023-01-13T23:28:59.443Z,100744.72
2023-01-13T23:31:26.019Z,100746.13
2023-01-13T23:33:52.719Z,100744.59
2023-01-13T23:36:23.481Z,100747.25
2023-01-13T23:38:51.036Z,100744.22
2023-01-13T23:41:20.857Z,100757.22
2023-01-13T23:43:55.484Z,100755.03
2023-01-13T23:46:22.938Z,100751.78
2023-01-13T23:48:50.351Z,100749.97
2023-01-13T23:51:17.546Z,100743.19
2023-01-13T23:53:46.137Z,100745.47
2023-01-13T23:56:16.396Z,100734.75
2023-01-13T23:58:43.742Z,100741.47
